Hauptseite
METAR-TAF:

METAR-TAF

Flughäfen :

Augsburg, Deutschland

Flughafen Augsburg

Breite: 48-26N, Länge: 010-56E, Höhe: 461 m

Beobachtung

Neuester Wetterbericht von vor 16 Minuten, um 00:20 UTC
Wind 11 kt aus Nordost
Temperatur -3°C
Luftfeuchtigkeit 74%
Luftdruck 1015 hPa
Sichtweite 10 km oder mehr

METAR: EDMA 240020Z AUTO 05011KT 9999 // OVC026/// M03/M07 Q1015

Zeit: 01:36 (00:36 UTC)

Prognose

Neuester Wetterbericht von vor 7 Stunden und 36 Minuten, um 17:00 UTC
Gültige Prognose vom 23 um 18 UTC bis 24 um 03 UTC
Wind 6 kt aus Ost/Nordost
Sichtweite 10 km oder mehr
Geschlossene Wolkendecke in der Höhe von 3000 ft

TAF: EDMA 231700Z 2318/2403 07006KT 9999 OVC030

Wetterbeobachtungen und Prognosen von mehr als 4000 Flughäfen (METAR und TAF Bericht).

Die verfügbaren Stationen werden durch gelbe und rote Markierungen auf der Karte dargestellt.

Führen Sie die Maus auf sie, um den Namen der Station zu sehen.

Darauf klicken, um die Beobachtung von Wetterbeobachtungen und Prognosen zu sehen.

Um die Karte zu ändern : klicken Sie auf den grünen Tasten mit einem schwarzen Kreuz Zum Vergrößern, auf den grünen Button mit einem Gedankenstrich zu verkleinern, oder auf die grünen Pfeile für benachbarte Karten.


METAR-TAF: